createdAt,value
2019-02-16T00:00:52.242Z,21.15
2019-02-16T00:01:52.204Z,21.12
2019-02-16T00:02:52.216Z,21.14
2019-02-16T00:03:52.185Z,21.14
2019-02-16T00:04:52.175Z,21.14
2019-02-16T00:05:52.162Z,21.12
2019-02-16T00:06:52.155Z,21.14
2019-02-16T00:07:52.166Z,21.15
2019-02-16T00:08:52.130Z,21.15
2019-02-16T00:09:52.118Z,21.14
2019-02-16T00:10:52.104Z,21.14
2019-02-16T00:11:52.096Z,21.14
2019-02-16T00:12:52.111Z,21.15
2019-02-16T00:13:52.080Z,21.14
2019-02-16T00:14:52.061Z,21.14
2019-02-16T00:15:52.070Z,21.15
2019-02-16T00:16:52.040Z,21.15
2019-02-16T00:17:52.035Z,21.15
2019-02-16T00:18:52.021Z,21.15
2019-02-16T00:19:52.006Z,21.15
2019-02-16T00:20:52.016Z,21.15
2019-02-16T00:21:51.988Z,21.15
2019-02-16T00:22:51.976Z,21.15
2019-02-16T00:23:51.966Z,21.15
2019-02-16T00:24:51.954Z,21.15
2019-02-16T00:25:51.978Z,21.17
2019-02-16T00:26:51.931Z,21.15
2019-02-16T00:27:51.926Z,21.17
2019-02-16T00:28:51.940Z,21.17
2019-02-16T00:29:51.901Z,21.15
2019-02-16T00:30:51.887Z,21.17
2019-02-16T00:31:51.901Z,21.17
2019-02-16T00:32:51.865Z,21.15
2019-02-16T00:33:51.859Z,21.17
2019-02-16T00:34:51.843Z,21.17
2019-02-16T00:35:51.834Z,21.17
2019-02-16T00:36:51.849Z,21.17
2019-02-16T00:37:51.809Z,21.17
2019-02-16T00:38:51.807Z,21.15
2019-02-16T00:39:51.816Z,21.17
2019-02-16T00:40:51.776Z,21.17
2019-02-16T00:41:51.771Z,21.18
2019-02-16T00:42:51.787Z,21.17
2019-02-16T00:43:51.752Z,21.17
2019-02-16T00:44:51.757Z,21.18
2019-02-16T00:45:51.728Z,21.17
2019-02-16T00:46:51.714Z,21.18
2019-02-16T00:47:51.700Z,21.18
2019-02-16T00:48:51.718Z,21.18
2019-02-16T00:49:51.681Z,21.18
2019-02-16T00:50:51.674Z,21.18
2019-02-16T00:51:51.663Z,21.17
2019-02-16T00:52:51.690Z,21.18
2019-02-16T00:53:51.638Z,21.18
2019-02-16T00:54:51.623Z,21.18
2019-02-16T00:55:51.619Z,21.17
2019-02-16T00:56:51.607Z,21.17
2019-02-16T00:57:51.594Z,21.18
2019-02-16T00:58:51.794Z,21.18
2019-02-16T00:59:51.569Z,21.18
2019-02-16T01:00:51.561Z,21.18
2019-02-16T01:01:51.547Z,21.18
2019-02-16T01:02:51.541Z,21.18
2019-02-16T01:03:51.528Z,21.18
2019-02-16T01:04:51.537Z,21.18
2019-02-16T01:05:51.502Z,21.18
2019-02-16T01:06:51.497Z,21.17
2019-02-16T01:07:51.487Z,21.17
2019-02-16T01:08:51.474Z,21.18
2019-02-16T01:09:51.482Z,21.17
2019-02-16T01:10:51.450Z,21.18
2019-02-16T01:11:51.441Z,21.18
2019-02-16T01:12:51.426Z,21.17
2019-02-16T01:13:51.419Z,21.17
2019-02-16T01:14:51.425Z,21.17
2019-02-16T01:15:51.397Z,21.15
2019-02-16T01:16:51.384Z,21.17
2019-02-16T01:17:51.373Z,21.17
2019-02-16T01:18:51.357Z,21.17
2019-02-16T01:19:51.371Z,21.17
2019-02-16T01:20:51.341Z,21.17
2019-02-16T01:21:51.327Z,21.15
2019-02-16T01:22:51.322Z,21.18
2019-02-16T01:23:51.307Z,21.15
2019-02-16T01:24:51.315Z,21.17
2019-02-16T01:25:51.282Z,21.14
2019-02-16T01:26:51.485Z,21.14
2019-02-16T01:27:51.266Z,21.15
2019-02-16T01:28:51.248Z,21.14
2019-02-16T01:29:51.245Z,21.14
2019-02-16T01:30:51.225Z,21.14
2019-02-16T01:31:51.214Z,21.14
2019-02-16T01:32:51.240Z,21.14
2019-02-16T01:33:51.199Z,21.14
2019-02-16T01:34:51.184Z,21.12
2019-02-16T01:35:51.177Z,21.11
2019-02-16T01:36:51.162Z,21.12
2019-02-16T01:37:51.152Z,21.11
2019-02-16T01:38:51.363Z,21.12
2019-02-16T01:39:51.137Z,21.09
2019-02-16T01:40:51.125Z,21.09
2019-02-16T01:41:51.110Z,21.09
2019-02-16T01:42:51.102Z,21.09
2019-02-16T01:43:51.084Z,21.09
2019-02-16T01:44:51.103Z,21.09
2019-02-16T01:45:51.069Z,21.07
2019-02-16T01:46:51.054Z,21.06
2019-02-16T01:47:51.041Z,21.06
2019-02-16T01:48:51.028Z,21.06
2019-02-16T01:49:51.024Z,21.05
2019-02-16T01:50:51.031Z,21.05
2019-02-16T01:51:51.025Z,21.05
2019-02-16T01:52:50.984Z,21.05
2019-02-16T01:53:50.982Z,21.03
2019-02-16T01:54:50.965Z,21.02
2019-02-16T01:55:50.956Z,21.02
2019-02-16T01:56:50.942Z,21.03
2019-02-16T01:57:50.979Z,21.03
2019-02-16T01:58:50.918Z,21.02
2019-02-16T01:59:50.910Z,21.02
2019-02-16T02:00:50.899Z,21.02
2019-02-16T02:01:50.884Z,21.00
2019-02-16T02:02:50.875Z,21.00
2019-02-16T02:03:50.910Z,21.00
2019-02-16T02:04:50.853Z,21.00
2019-02-16T02:05:50.839Z,20.99
2019-02-16T02:06:50.832Z,20.99
2019-02-16T02:07:50.823Z,20.99
2019-02-16T02:08:50.808Z,20.99
2019-02-16T02:09:50.820Z,20.99
2019-02-16T02:10:50.783Z,20.96
2019-02-16T02:11:50.777Z,20.96
2019-02-16T02:12:50.762Z,20.96
2019-02-16T02:13:50.780Z,20.95
2019-02-16T02:14:50.740Z,20.95
2019-02-16T02:15:50.732Z,20.96
2019-02-16T02:16:50.718Z,20.95
2019-02-16T02:17:50.706Z,20.95
2019-02-16T02:18:50.726Z,20.95
2019-02-16T02:19:50.687Z,20.93
2019-02-16T02:20:50.676Z,20.92
2019-02-16T02:21:50.667Z,20.92
2019-02-16T02:22:50.868Z,20.92
2019-02-16T02:23:50.638Z,20.92
2019-02-16T02:24:50.633Z,20.92
2019-02-16T02:25:50.616Z,20.90
2019-02-16T02:26:50.609Z,20.90
2019-02-16T02:27:50.596Z,20.90
2019-02-16T02:28:50.608Z,20.90
2019-02-16T02:29:50.592Z,20.87
2019-02-16T02:30:50.564Z,20.87
2019-02-16T02:31:50.555Z,20.87
2019-02-16T02:32:50.563Z,20.87
2019-02-16T02:33:50.743Z,20.87
2019-02-16T02:34:50.523Z,20.85
2019-02-16T02:35:50.512Z,20.85
2019-02-16T02:36:50.495Z,20.87
2019-02-16T02:37:50.488Z,20.85
2019-02-16T02:38:50.471Z,20.85
2019-02-16T02:39:50.490Z,20.84
2019-02-16T02:40:50.450Z,20.84
2019-02-16T02:41:50.443Z,20.82
2019-02-16T02:42:50.434Z,20.82
2019-02-16T02:43:50.418Z,20.82
2019-02-16T02:44:50.405Z,20.81
2019-02-16T02:45:50.425Z,20.82
2019-02-16T02:46:50.383Z,20.81
2019-02-16T02:47:50.373Z,20.82
2019-02-16T02:48:50.368Z,20.80
2019-02-16T02:49:50.356Z,20.81
2019-02-16T02:50:50.341Z,20.80
2019-02-16T02:51:52.466Z,20.81
2019-02-16T02:52:50.323Z,20.80
2019-02-16T02:53:50.310Z,20.80
2019-02-16T02:54:50.297Z,20.80
2019-02-16T02:55:50.285Z,20.78
2019-02-16T02:56:50.277Z,20.77
2019-02-16T02:57:50.286Z,20.78
2019-02-16T02:58:50.274Z,20.77
2019-02-16T02:59:50.247Z,20.77
2019-02-16T03:00:50.265Z,20.77
2019-02-16T03:01:50.224Z,20.77
2019-02-16T03:02:50.209Z,20.75
2019-02-16T03:03:50.194Z,20.75
2019-02-16T03:04:50.208Z,20.75
2019-02-16T03:05:50.194Z,20.75
2019-02-16T03:06:50.171Z,20.74
2019-02-16T03:07:50.159Z,20.74
2019-02-16T03:08:50.152Z,20.72
2019-02-16T03:09:50.135Z,20.72
2019-02-16T03:10:50.148Z,20.70
2019-02-16T03:11:50.109Z,20.72
2019-02-16T03:12:50.096Z,20.70
2019-02-16T03:13:50.091Z,20.72
2019-02-16T03:14:50.081Z,20.70
2019-02-16T03:15:50.092Z,20.72
2019-02-16T03:16:50.056Z,20.70
2019-02-16T03:17:50.046Z,20.70
2019-02-16T03:18:50.030Z,20.69
2019-02-16T03:19:50.028Z,20.69
2019-02-16T03:20:50.029Z,20.69
2019-02-16T03:21:49.999Z,20.69
2019-02-16T03:22:49.988Z,20.69
2019-02-16T03:23:49.974Z,20.67
2019-02-16T03:24:49.963Z,20.67
2019-02-16T03:25:49.980Z,20.67
2019-02-16T03:26:49.955Z,20.66
2019-02-16T03:27:49.932Z,20.66
2019-02-16T03:28:49.943Z,20.66
2019-02-16T03:29:49.917Z,20.65
2019-02-16T03:30:49.900Z,20.66
2019-02-16T03:31:49.886Z,20.65
2019-02-16T03:32:49.887Z,20.65
2019-02-16T03:33:50.079Z,20.63
2019-02-16T03:34:49.854Z,20.65
2019-02-16T03:35:49.842Z,20.63
2019-02-16T03:36:49.833Z,20.63
2019-02-16T03:37:49.827Z,20.65
2019-02-16T03:38:49.815Z,20.63
2019-02-16T03:39:49.828Z,20.62
2019-02-16T03:40:49.792Z,20.62
2019-02-16T03:41:49.780Z,20.62
2019-02-16T03:42:49.765Z,20.62
2019-02-16T03:43:49.779Z,20.60
2019-02-16T03:44:49.742Z,20.62
2019-02-16T03:45:49.739Z,20.60
2019-02-16T03:46:49.719Z,20.60
2019-02-16T03:47:49.706Z,20.60
2019-02-16T03:48:49.696Z,20.60
2019-02-16T03:49:49.713Z,20.59
2019-02-16T03:50:49.680Z,20.59
2019-02-16T03:51:49.664Z,20.59
2019-02-16T03:52:49.653Z,20.59
2019-02-16T03:53:49.641Z,20.58
2019-02-16T03:54:49.634Z,20.56
2019-02-16T03:55:49.646Z,20.58
2019-02-16T03:56:49.615Z,20.58
2019-02-16T03:57:49.600Z,20.56
2019-02-16T03:58:49.630Z,20.58
2019-02-16T03:59:49.702Z,20.56
2019-02-16T04:00:49.570Z,20.55
2019-02-16T04:01:49.552Z,20.55
2019-02-16T04:02:49.551Z,20.55
2019-02-16T04:03:49.529Z,20.56
2019-02-16T04:04:49.560Z,20.52
2019-02-16T04:05:49.512Z,20.55
2019-02-16T04:06:49.501Z,20.52
2019-02-16T04:07:49.493Z,20.52
2019-02-16T04:08:49.482Z,20.52
2019-02-16T04:09:49.464Z,20.52
2019-02-16T04:10:49.477Z,20.52
2019-02-16T04:11:49.449Z,20.51
2019-02-16T04:12:49.445Z,20.52
2019-02-16T04:13:49.426Z,20.51
2019-02-16T04:14:49.413Z,20.50
2019-02-16T04:15:49.400Z,20.48
2019-02-16T04:16:49.682Z,20.50
2019-02-16T04:17:49.380Z,20.50
2019-02-16T04:18:49.371Z,20.50
2019-02-16T04:19:49.353Z,20.50
2019-02-16T04:20:49.349Z,20.48
2019-02-16T04:21:49.333Z,20.48
2019-02-16T04:22:49.342Z,20.47
2019-02-16T04:23:49.307Z,20.48
2019-02-16T04:24:49.297Z,20.47
2019-02-16T04:25:49.291Z,20.48
2019-02-16T04:26:49.282Z,20.47
2019-02-16T04:27:49.270Z,20.47
2019-02-16T04:28:49.281Z,20.44
2019-02-16T04:29:49.248Z,20.44
2019-02-16T04:30:49.237Z,20.44
2019-02-16T04:31:49.224Z,20.44
2019-02-16T04:32:49.217Z,20.44
2019-02-16T04:33:49.221Z,20.44
2019-02-16T04:34:49.188Z,20.44
2019-02-16T04:35:49.181Z,20.44
2019-02-16T04:36:49.171Z,20.43
2019-02-16T04:37:49.161Z,20.43
2019-02-16T04:38:49.153Z,20.41
2019-02-16T04:39:49.161Z,20.41
2019-02-16T04:40:49.127Z,20.41
2019-02-16T04:41:49.145Z,20.41
2019-02-16T04:42:49.103Z,20.40
2019-02-16T04:43:49.094Z,20.41
2019-02-16T04:44:49.077Z,20.41
2019-02-16T04:45:49.066Z,20.41
2019-02-16T04:46:49.056Z,20.40
2019-02-16T04:47:49.073Z,20.40
2019-02-16T04:48:49.040Z,20.40
2019-02-16T04:49:49.028Z,20.40
2019-02-16T04:50:49.010Z,20.39
2019-02-16T04:51:49.007Z,20.40
2019-02-16T04:52:48.995Z,20.39
2019-02-16T04:53:49.277Z,20.37
2019-02-16T04:54:48.971Z,20.39
2019-02-16T04:55:48.958Z,20.39
2019-02-16T04:56:48.947Z,20.37
2019-02-16T04:57:48.931Z,20.37
2019-02-16T04:58:48.925Z,20.37
2019-02-16T04:59:48.935Z,20.36
2019-02-16T05:00:48.899Z,20.36
2019-02-16T05:01:48.895Z,20.37
2019-02-16T05:02:48.891Z,20.36
2019-02-16T05:03:48.873Z,20.36
2019-02-16T05:04:48.855Z,20.36
2019-02-16T05:05:48.884Z,20.36
2019-02-16T05:06:48.838Z,20.36
2019-02-16T05:07:48.822Z,20.36
2019-02-16T05:08:48.810Z,20.34
2019-02-16T05:09:48.801Z,20.34
2019-02-16T05:10:48.786Z,20.34
2019-02-16T05:11:48.799Z,20.34
2019-02-16T05:12:48.766Z,20.32
2019-02-16T05:13:48.759Z,20.32
2019-02-16T05:14:48.741Z,20.32
2019-02-16T05:15:48.808Z,20.32
2019-02-16T05:16:48.728Z,20.31
2019-02-16T05:17:48.711Z,20.32
2019-02-16T05:18:48.698Z,20.31
2019-02-16T05:19:48.692Z,20.31
2019-02-16T05:20:48.676Z,20.31
2019-02-16T05:21:48.688Z,20.31
2019-02-16T05:22:48.659Z,20.31
2019-02-16T05:23:48.646Z,20.29
2019-02-16T05:24:48.638Z,20.31
2019-02-16T05:25:50.918Z,20.29
2019-02-16T05:26:48.614Z,20.31
2019-02-16T05:27:48.628Z,20.29
2019-02-16T05:28:48.590Z,20.28
2019-02-16T05:29:48.579Z,20.28
2019-02-16T05:30:48.575Z,20.28
2019-02-16T05:31:48.583Z,20.26
2019-02-16T05:32:48.545Z,20.26
2019-02-16T05:33:48.540Z,20.28
2019-02-16T05:34:48.522Z,20.28
2019-02-16T05:35:48.563Z,20.26
2019-02-16T05:36:48.509Z,20.26
2019-02-16T05:37:48.498Z,20.26
2019-02-16T05:38:48.484Z,20.26
2019-02-16T05:39:48.470Z,20.24
2019-02-16T05:40:48.456Z,20.25
2019-02-16T05:41:48.737Z,20.25
2019-02-16T05:42:48.434Z,20.26
2019-02-16T05:43:48.428Z,20.25
2019-02-16T05:44:48.419Z,20.26
2019-02-16T05:45:48.407Z,20.25
2019-02-16T05:46:48.397Z,20.25
2019-02-16T05:47:48.400Z,20.24
2019-02-16T05:48:48.391Z,20.24
2019-02-16T05:49:48.364Z,20.24
2019-02-16T05:50:48.348Z,20.24
2019-02-16T05:51:48.359Z,20.22
2019-02-16T05:52:54.559Z,20.24
2019-02-16T05:53:49.319Z,20.22
2019-02-16T05:54:48.308Z,20.22
2019-02-16T05:55:48.295Z,20.24
2019-02-16T05:56:48.281Z,20.24
2019-02-16T05:57:48.275Z,20.22
2019-02-16T05:58:48.287Z,20.22
2019-02-16T05:59:48.322Z,20.21
2019-02-16T06:00:48.263Z,20.21
2019-02-16T06:01:54.054Z,20.21
2019-02-16T06:02:49.220Z,20.21
2019-02-16T06:03:48.214Z,20.19
2019-02-16T06:04:48.209Z,20.19
2019-02-16T06:05:48.202Z,20.19
2019-02-16T06:06:48.172Z,20.19
2019-02-16T06:07:48.158Z,20.19
2019-02-16T06:08:48.148Z,20.19
2019-02-16T06:09:48.260Z,20.19
2019-02-16T06:10:48.127Z,20.21
2019-02-16T06:11:48.134Z,20.19
2019-02-16T06:12:48.140Z,20.19
2019-02-16T06:13:48.109Z,20.19
2019-02-16T06:14:48.081Z,20.18
2019-02-16T06:15:48.222Z,20.18
2019-02-16T06:16:48.274Z,20.18
2019-02-16T06:17:48.046Z,20.16
2019-02-16T06:18:48.064Z,20.16
2019-02-16T06:19:48.030Z,20.18
2019-02-16T06:20:48.139Z,20.18
2019-02-16T06:21:48.007Z,20.16
2019-02-16T06:22:48.158Z,20.18
2019-02-16T06:23:48.115Z,20.14
2019-02-16T06:24:48.199Z,20.18
2019-02-16T06:25:47.964Z,20.14
2019-02-16T06:26:47.952Z,20.14
2019-02-16T06:27:47.937Z,20.14
2019-02-16T06:28:48.086Z,20.14
2019-02-16T06:29:47.911Z,20.14
2019-02-16T06:30:47.910Z,20.14
2019-02-16T06:31:47.895Z,20.14
2019-02-16T06:32:47.900Z,20.14
2019-02-16T06:33:47.874Z,20.13
2019-02-16T06:34:48.077Z,20.14
2019-02-16T06:35:48.116Z,20.13
2019-02-16T06:36:48.058Z,20.13
2019-02-16T06:37:48.061Z,20.13
2019-02-16T06:38:48.110Z,20.13
2019-02-16T06:39:48.088Z,20.11
2019-02-16T06:40:47.788Z,20.13
2019-02-16T06:41:47.783Z,20.11
2019-02-16T06:42:47.773Z,20.11
2019-02-16T06:43:47.759Z,20.11
2019-02-16T06:44:47.798Z,20.13
2019-02-16T06:45:47.734Z,20.10
2019-02-16T06:46:47.751Z,20.11
2019-02-16T06:47:47.718Z,20.10
2019-02-16T06:48:47.702Z,20.10
2019-02-16T06:49:47.690Z,20.10
2019-02-16T06:50:47.677Z,20.10
2019-02-16T06:51:47.672Z,20.10
2019-02-16T06:52:47.689Z,20.10
2019-02-16T06:53:47.648Z,20.10
2019-02-16T06:54:47.635Z,20.09
2019-02-16T06:55:47.645Z,20.10
2019-02-16T06:56:47.611Z,20.09
2019-02-16T06:57:47.598Z,20.09
2019-02-16T06:58:47.586Z,20.09
2019-02-16T06:59:47.582Z,20.07
2019-02-16T07:00:47.571Z,20.09
2019-02-16T07:01:47.766Z,20.07
2019-02-16T07:02:47.544Z,20.09
2019-02-16T07:03:47.535Z,20.07
2019-02-16T07:04:47.528Z,20.07
2019-02-16T07:05:47.514Z,20.09
2019-02-16T07:06:47.505Z,20.07
2019-02-16T07:07:47.518Z,20.06
2019-02-16T07:08:47.484Z,20.07
2019-02-16T07:09:47.467Z,20.07
2019-02-16T07:10:47.461Z,20.06
2019-02-16T07:11:47.451Z,20.06
2019-02-16T07:12:47.440Z,20.06
2019-02-16T07:13:47.453Z,20.07
2019-02-16T07:14:47.412Z,20.06
2019-02-16T07:15:47.402Z,20.06
2019-02-16T07:16:47.394Z,20.06
2019-02-16T07:17:47.386Z,20.06
2019-02-16T07:18:47.371Z,20.06
2019-02-16T07:19:47.570Z,20.06
2019-02-16T07:20:47.352Z,20.04
2019-02-16T07:21:47.334Z,20.04
2019-02-16T07:22:47.326Z,20.04
2019-02-16T07:23:47.315Z,20.04
2019-02-16T07:24:47.307Z,20.03
2019-02-16T07:25:47.504Z,20.03
2019-02-16T07:26:47.287Z,20.04
2019-02-16T07:27:47.274Z,20.03
2019-02-16T07:28:47.261Z,20.04
2019-02-16T07:29:47.255Z,20.04
2019-02-16T07:30:47.244Z,20.03
2019-02-16T07:31:47.255Z,20.03
2019-02-16T07:32:47.216Z,20.03
2019-02-16T07:33:47.211Z,20.03
2019-02-16T07:34:47.202Z,20.03
2019-02-16T07:35:47.190Z,20.03
2019-02-16T07:36:47.204Z,20.02
2019-02-16T07:37:47.162Z,20.03
2019-02-16T07:38:47.160Z,20.03
2019-02-16T07:39:47.145Z,20.02
2019-02-16T07:40:47.137Z,20.02
2019-02-16T07:41:47.118Z,20.02
2019-02-16T07:42:47.145Z,20.03
2019-02-16T07:43:47.100Z,20.02
2019-02-16T07:44:47.086Z,20.02
2019-02-16T07:45:47.082Z,20.00
2019-02-16T07:46:47.067Z,20.00
2019-02-16T07:47:47.059Z,20.00
2019-02-16T07:48:47.075Z,20.00
2019-02-16T07:49:47.032Z,19.99
2019-02-16T07:50:47.024Z,20.00
2019-02-16T07:51:47.012Z,19.99
2019-02-16T07:52:47.005Z,20.00
2019-02-16T07:53:46.995Z,20.02
2019-02-16T07:54:47.007Z,20.02
2019-02-16T07:55:46.971Z,20.00
2019-02-16T07:56:46.964Z,20.00
2019-02-16T07:57:46.949Z,19.99
2019-02-16T07:58:46.939Z,19.99
2019-02-16T07:59:46.930Z,20.00
2019-02-16T08:00:46.940Z,20.00
2019-02-16T08:01:46.909Z,20.00
2019-02-16T08:02:46.894Z,19.99
2019-02-16T08:03:46.888Z,19.99
2019-02-16T08:04:46.879Z,19.99
2019-02-16T08:05:46.891Z,19.99
2019-02-16T08:06:46.850Z,19.99
2019-02-16T08:07:46.885Z,19.99
2019-02-16T08:08:46.832Z,19.99
2019-02-16T08:09:46.822Z,19.96
2019-02-16T08:10:46.809Z,19.96
2019-02-16T08:11:46.810Z,19.99
2019-02-16T08:12:46.792Z,19.95
2019-02-16T08:13:46.801Z,19.96
2019-02-16T08:14:46.766Z,19.95
2019-02-16T08:15:46.760Z,19.95
2019-02-16T08:16:46.748Z,19.95
2019-02-16T08:17:46.738Z,19.95
2019-02-16T08:18:46.746Z,19.95
2019-02-16T08:19:46.716Z,19.95
2019-02-16T08:20:46.706Z,19.95
2019-02-16T08:21:46.689Z,19.95
2019-02-16T08:22:46.680Z,19.95
2019-02-16T08:23:46.668Z,19.94
2019-02-16T08:24:46.681Z,19.94
2019-02-16T08:25:46.645Z,19.94
2019-02-16T08:26:46.638Z,19.94
2019-02-16T08:27:46.626Z,19.95
2019-02-16T08:28:46.609Z,19.94
2019-02-16T08:29:46.607Z,19.94
2019-02-16T08:30:46.632Z,19.92
2019-02-16T08:31:46.584Z,19.94
2019-02-16T08:32:46.568Z,19.94
2019-02-16T08:33:46.555Z,19.92
2019-02-16T08:34:46.551Z,19.94
2019-02-16T08:35:46.541Z,19.94
2019-02-16T08:36:46.550Z,19.94
2019-02-16T08:37:46.516Z,19.94
2019-02-16T08:38:46.502Z,19.94
2019-02-16T08:39:46.495Z,19.92
2019-02-16T08:40:46.486Z,19.92
2019-02-16T08:41:46.509Z,19.92
2019-02-16T08:42:46.459Z,19.92
2019-02-16T08:43:46.448Z,19.91
2019-02-16T08:44:46.439Z,19.94
2019-02-16T08:45:46.436Z,19.92
2019-02-16T08:46:46.416Z,19.92
2019-02-16T08:47:46.477Z,19.92
2019-02-16T08:48:46.392Z,19.91
2019-02-16T08:49:46.386Z,19.91
2019-02-16T08:50:46.372Z,19.91
2019-02-16T08:51:46.359Z,19.89
2019-02-16T08:52:46.376Z,19.91
2019-02-16T08:53:49.812Z,19.91
2019-02-16T08:54:46.334Z,19.89
2019-02-16T08:55:47.113Z,19.91
2019-02-16T08:56:46.308Z,19.92
2019-02-16T08:57:46.298Z,19.92
2019-02-16T08:58:46.289Z,19.89
2019-02-16T08:59:46.278Z,19.89
2019-02-16T09:00:46.263Z,19.91
2019-02-16T09:01:46.270Z,19.89
2019-02-16T09:02:46.247Z,19.91
2019-02-16T09:03:46.235Z,19.89
2019-02-16T09:04:46.222Z,19.89
2019-02-16T09:05:46.232Z,19.91
2019-02-16T09:06:46.222Z,19.89
2019-02-16T09:07:46.185Z,19.89
2019-02-16T09:08:46.179Z,19.88
2019-02-16T09:09:46.169Z,19.89
2019-02-16T09:10:46.157Z,19.88
2019-02-16T09:11:46.145Z,19.89
2019-02-16T09:12:46.164Z,19.89
2019-02-16T09:13:46.118Z,19.89
2019-02-16T09:14:46.107Z,19.88
2019-02-16T09:15:46.104Z,19.89
2019-02-16T09:16:46.093Z,19.89
2019-02-16T09:17:46.079Z,19.89
2019-02-16T09:18:46.096Z,19.89
2019-02-16T09:19:46.056Z,19.86
2019-02-16T09:20:46.047Z,19.89
2019-02-16T09:21:46.030Z,19.88
2019-02-16T09:22:46.030Z,19.89
2019-02-16T09:23:46.032Z,19.91
2019-02-16T09:24:46.005Z,19.92
2019-02-16T09:25:45.994Z,19.91
2019-02-16T09:26:46.039Z,19.91
2019-02-16T09:27:45.968Z,19.92
2019-02-16T09:28:45.957Z,19.95
2019-02-16T09:29:45.951Z,19.95
2019-02-16T09:30:45.963Z,19.95
2019-02-16T09:31:45.922Z,19.95
2019-02-16T09:32:45.914Z,19.96
2019-02-16T09:33:46.193Z,19.96
2019-02-16T09:34:45.896Z,19.99
2019-02-16T09:35:45.880Z,20.00
2019-02-16T09:36:45.866Z,20.00
2019-02-16T09:37:45.862Z,20.00
2019-02-16T09:38:45.853Z,20.00
2019-02-16T09:39:45.870Z,20.03
2019-02-16T09:40:45.824Z,20.02
2019-02-16T09:41:45.820Z,20.02
2019-02-16T09:42:45.802Z,20.04
2019-02-16T09:43:45.823Z,20.03
2019-02-16T09:44:45.805Z,20.04
2019-02-16T09:45:45.775Z,20.06
2019-02-16T09:46:45.759Z,20.07
2019-02-16T09:47:45.750Z,20.06
2019-02-16T09:48:45.743Z,20.06
2019-02-16T09:49:45.730Z,20.07
2019-02-16T09:50:45.744Z,20.07
2019-02-16T09:51:45.709Z,20.06
2019-02-16T09:52:45.703Z,20.07
2019-02-16T09:53:45.688Z,20.07
2019-02-16T09:54:45.677Z,20.07
2019-02-16T09:55:45.669Z,20.07
2019-02-16T09:56:45.813Z,20.07
2019-02-16T09:57:45.641Z,20.06
2019-02-16T09:58:45.636Z,20.09
2019-02-16T09:59:45.624Z,20.07
2019-02-16T10:00:45.650Z,20.07
2019-02-16T10:01:45.595Z,20.07
2019-02-16T10:02:45.591Z,20.09
2019-02-16T10:03:45.575Z,20.07
2019-02-16T10:04:45.567Z,20.09
2019-02-16T10:05:45.558Z,20.07
2019-02-16T10:06:45.754Z,20.07
2019-02-16T10:07:45.529Z,20.07
2019-02-16T10:08:45.525Z,20.07
2019-02-16T10:09:45.506Z,20.07
2019-02-16T10:10:45.498Z,20.06
2019-02-16T10:11:45.488Z,20.06
2019-02-16T10:12:45.517Z,20.06
2019-02-16T10:13:45.464Z,20.06
2019-02-16T10:14:45.457Z,20.06
2019-02-16T10:15:45.441Z,20.06
2019-02-16T10:16:45.437Z,20.06
2019-02-16T10:17:45.418Z,20.06
2019-02-16T10:18:45.432Z,20.06
2019-02-16T10:19:45.421Z,20.06
2019-02-16T10:20:45.389Z,20.07
2019-02-16T10:21:45.379Z,20.07
2019-02-16T10:22:45.366Z,20.06
2019-02-16T10:23:45.352Z,20.06
2019-02-16T10:24:45.368Z,20.07
2019-02-16T10:25:45.337Z,20.07
2019-02-16T10:26:45.320Z,20.09
2019-02-16T10:27:45.310Z,20.07
2019-02-16T10:28:45.296Z,20.07
2019-02-16T10:29:45.307Z,20.09
2019-02-16T10:30:45.295Z,20.07
2019-02-16T10:31:45.267Z,20.07
2019-02-16T10:32:45.254Z,20.09
2019-02-16T10:33:45.245Z,20.09
2019-02-16T10:34:45.231Z,20.07
2019-02-16T10:35:45.220Z,20.07
2019-02-16T10:36:45.248Z,20.07
2019-02-16T10:37:45.201Z,20.09
2019-02-16T10:38:45.190Z,20.07
2019-02-16T10:39:45.176Z,20.07
2019-02-16T10:40:45.169Z,20.09
2019-02-16T10:41:45.155Z,20.09
2019-02-16T10:42:45.164Z,20.07
2019-02-16T10:43:45.135Z,20.09
2019-02-16T10:44:45.125Z,20.09
2019-02-16T10:45:45.112Z,20.07
2019-02-16T10:46:45.098Z,20.07
2019-02-16T10:47:45.111Z,20.09
2019-02-16T10:48:45.072Z,20.09
2019-02-16T10:49:45.067Z,20.09
2019-02-16T10:50:45.057Z,20.09
2019-02-16T10:51:45.070Z,20.10
2019-02-16T10:52:45.033Z,20.09
2019-02-16T10:53:45.020Z,20.10
2019-02-16T10:54:45.006Z,20.09
2019-02-16T10:55:45.002Z,20.09
2019-02-16T10:56:44.987Z,20.10
2019-02-16T10:57:45.001Z,20.10
2019-02-16T10:58:44.969Z,20.09
2019-02-16T10:59:45.885Z,20.10
2019-02-16T11:00:44.944Z,20.09
2019-02-16T11:01:44.933Z,20.10
2019-02-16T11:02:44.943Z,20.09
2019-02-16T11:03:44.910Z,20.10
2019-02-16T11:04:44.896Z,20.10
2019-02-16T11:05:44.891Z,20.10
2019-02-16T11:06:44.878Z,20.09
2019-02-16T11:07:44.861Z,20.10
2019-02-16T11:08:44.880Z,20.10
2019-02-16T11:09:44.847Z,20.10
2019-02-16T11:10:44.829Z,20.10
2019-02-16T11:11:45.541Z,20.09
2019-02-16T11:12:44.816Z,20.10
2019-02-16T11:13:44.823Z,20.09
2019-02-16T11:14:44.788Z,20.10
2019-02-16T11:15:44.784Z,20.09
2019-02-16T11:16:44.764Z,20.10
2019-02-16T11:17:44.754Z,20.11
2019-02-16T11:18:44.770Z,20.10
2019-02-16T11:19:44.770Z,20.11
2019-02-16T11:20:44.724Z,20.13
2019-02-16T11:21:44.712Z,20.11
2019-02-16T11:22:44.701Z,20.11
2019-02-16T11:23:45.464Z,20.13
2019-02-16T11:24:44.678Z,20.13
2019-02-16T11:25:44.817Z,20.13
2019-02-16T11:26:44.652Z,20.13
2019-02-16T11:27:44.647Z,20.13
2019-02-16T11:28:44.635Z,20.14
2019-02-16T11:29:44.634Z,20.14
2019-02-16T11:30:44.620Z,20.14
2019-02-16T11:31:44.624Z,20.14
2019-02-16T11:32:44.588Z,20.14
2019-02-16T11:33:44.581Z,20.14
2019-02-16T11:34:44.569Z,20.14
2019-02-16T11:35:44.564Z,20.14
2019-02-16T11:36:44.552Z,20.14
2019-02-16T11:37:44.566Z,20.14
2019-02-16T11:38:44.531Z,20.14
2019-02-16T11:39:44.513Z,20.13
2019-02-16T11:40:44.508Z,20.16
2019-02-16T11:41:44.499Z,20.14
2019-02-16T11:42:44.508Z,20.14
2019-02-16T11:43:44.471Z,20.14
2019-02-16T11:44:44.460Z,20.16
2019-02-16T11:45:44.458Z,20.14
2019-02-16T11:46:44.441Z,20.13
2019-02-16T11:47:44.713Z,20.14
2019-02-16T11:48:44.431Z,20.13
2019-02-16T11:49:44.415Z,20.14
2019-02-16T11:50:44.400Z,20.14
2019-02-16T11:51:44.388Z,20.14
2019-02-16T11:52:44.385Z,20.13
2019-02-16T11:53:44.389Z,20.14
2019-02-16T11:54:45.841Z,20.14
2019-02-16T11:55:44.345Z,20.14
2019-02-16T11:56:44.333Z,20.13
2019-02-16T11:57:44.327Z,20.14
2019-02-16T11:58:44.315Z,20.13
2019-02-16T11:59:44.331Z,20.13
2019-02-16T12:00:44.288Z,20.14
2019-02-16T12:01:44.279Z,20.14
2019-02-16T12:02:44.269Z,20.16
2019-02-16T12:03:44.262Z,20.14
2019-02-16T12:04:44.246Z,20.16
2019-02-16T12:05:44.263Z,20.18
2019-02-16T12:06:44.225Z,20.16
2019-02-16T12:07:44.216Z,20.14
2019-02-16T12:08:44.206Z,20.16
2019-02-16T12:09:44.198Z,20.16
2019-02-16T12:10:44.177Z,20.16
2019-02-16T12:11:44.193Z,20.18
2019-02-16T12:12:44.162Z,20.16
2019-02-16T12:13:44.143Z,20.16
2019-02-16T12:14:44.142Z,20.18
2019-02-16T12:15:44.146Z,20.19
2019-02-16T12:16:44.120Z,20.18
2019-02-16T12:17:44.109Z,20.18
2019-02-16T12:18:44.118Z,20.18
2019-02-16T12:19:44.081Z,20.19
2019-02-16T12:20:44.066Z,20.18
2019-02-16T12:21:44.062Z,20.19
2019-02-16T12:22:44.051Z,20.21
2019-02-16T12:23:44.064Z,20.21
2019-02-16T12:24:44.030Z,20.19
2019-02-16T12:25:44.017Z,20.21
2019-02-16T12:26:44.010Z,20.21
2019-02-16T12:27:43.998Z,20.22
2019-02-16T12:28:43.984Z,20.21
2019-02-16T12:29:43.999Z,20.21
2019-02-16T12:30:43.961Z,20.21
2019-02-16T12:31:43.958Z,20.21
2019-02-16T12:32:43.946Z,20.22
2019-02-16T12:33:43.933Z,20.22
2019-02-16T12:34:43.922Z,20.21
2019-02-16T12:35:43.932Z,20.21
2019-02-16T12:36:43.903Z,20.21
2019-02-16T12:37:43.884Z,20.22
2019-02-16T12:38:43.877Z,20.22
2019-02-16T12:39:43.869Z,20.24
2019-02-16T12:40:43.855Z,20.24
2019-02-16T12:41:43.868Z,20.22
2019-02-16T12:42:43.836Z,20.24
2019-02-16T12:43:43.828Z,20.22
2019-02-16T12:44:43.814Z,20.22
2019-02-16T12:45:50.976Z,20.24
2019-02-16T12:46:44.810Z,20.25
2019-02-16T12:47:43.783Z,20.25
2019-02-16T12:48:43.773Z,20.25
2019-02-16T12:49:43.756Z,20.25
2019-02-16T12:50:43.791Z,20.25
2019-02-16T12:51:43.735Z,20.25
2019-02-16T12:52:43.726Z,20.25